createdAt,value
2019-05-01T00:02:10.707Z,100431.91
2019-05-01T00:04:52.303Z,100432.55
2019-05-01T00:07:25.015Z,100433.95
2019-05-01T00:09:56.283Z,100428.03
2019-05-01T00:12:27.136Z,100419.86
2019-05-01T00:14:58.388Z,100420.48
2019-05-01T00:17:29.460Z,100418.81
2019-05-01T00:20:00.403Z,100413.16
2019-05-01T00:22:31.280Z,100408.88
2019-05-01T00:25:02.340Z,100407.61
2019-05-01T00:27:33.296Z,100403.56
2019-05-01T00:30:08.089Z,100406.08
2019-05-01T00:32:40.122Z,100397.80
2019-05-01T00:35:10.878Z,100402.05
2019-05-01T00:37:41.629Z,100393.73
2019-05-01T00:40:12.792Z,100392.48
2019-05-01T00:42:43.651Z,100390.57
2019-05-01T00:45:14.591Z,100388.18
2019-05-01T00:47:45.565Z,100389.44
2019-05-01T00:50:16.505Z,100382.98
2019-05-01T00:52:47.483Z,100370.03
2019-05-01T00:55:36.645Z,100369.53
2019-05-01T00:58:18.242Z,100374.02
2019-05-01T01:00:53.598Z,100363.18
2019-05-01T01:03:24.657Z,100358.14
2019-05-01T01:05:55.511Z,100361.66
2019-05-01T01:08:26.577Z,100361.44
2019-05-01T01:10:57.536Z,100354.73
2019-05-01T01:13:28.678Z,100359.14
2019-05-01T01:15:59.755Z,100353.72
2019-05-01T01:18:30.816Z,100348.80
2019-05-01T01:21:01.776Z,100342.88
2019-05-01T01:23:33.448Z,100342.25
2019-05-01T01:26:04.099Z,100346.66
2019-05-01T01:28:35.159Z,100340.33
2019-05-01T01:31:05.999Z,100339.70
2019-05-01T01:33:37.996Z,100336.83
2019-05-01T01:36:08.649Z,100331.50
2019-05-01T01:38:39.710Z,100329.64
2019-05-01T01:41:10.771Z,100328.00
2019-05-01T01:43:56.252Z,100326.84
2019-05-01T01:46:34.883Z,100315.27
2019-05-01T01:49:05.940Z,100316.16
2019-05-01T01:51:36.780Z,100318.42
2019-05-01T01:54:08.064Z,100317.00
2019-05-01T01:56:39.071Z,100304.49
2019-05-01T01:59:10.190Z,100306.77
2019-05-01T02:01:48.405Z,100303.64
2019-05-01T02:04:21.099Z,100298.31
2019-05-01T02:06:52.165Z,100304.49
2019-05-01T02:09:23.122Z,100307.27
2019-05-01T02:11:54.181Z,100300.55
2019-05-01T02:14:25.139Z,100296.80
2019-05-01T02:16:55.994Z,100285.03
2019-05-01T02:19:27.054Z,100286.64
2019-05-01T02:21:57.893Z,100291.34
2019-05-01T02:24:28.975Z,100291.30
2019-05-01T02:27:04.433Z,100287.73
2019-05-01T02:29:37.539Z,100289.51
2019-05-01T02:32:08.906Z,100285.88
2019-05-01T02:34:43.230Z,100288.09
2019-05-01T02:37:16.032Z,100287.02
2019-05-01T02:39:49.228Z,100283.84
2019-05-01T02:42:22.557Z,100288.25
2019-05-01T02:44:55.237Z,100286.89
2019-05-01T02:47:29.487Z,100276.27
2019-05-01T02:50:03.432Z,100276.01
2019-05-01T02:52:37.640Z,100267.89
2019-05-01T02:55:11.774Z,100271.93
2019-05-01T02:57:43.545Z,100266.72
2019-05-01T03:00:14.780Z,100263.95
2019-05-01T03:02:45.885Z,100261.50
2019-05-01T03:05:16.627Z,100263.56
2019-05-01T03:07:47.584Z,100262.34
2019-05-01T03:10:18.744Z,100266.47
2019-05-01T03:12:52.459Z,100264.87
2019-05-01T03:15:24.285Z,100268.61
2019-05-01T03:17:57.246Z,100271.64
2019-05-01T03:20:42.357Z,100269.38
2019-05-01T03:23:15.427Z,100273.28
2019-05-01T03:25:47.000Z,100271.60
2019-05-01T03:28:18.052Z,100263.13
2019-05-01T03:30:49.215Z,100264.52
2019-05-01T03:33:19.853Z,100259.15
2019-05-01T03:35:51.239Z,100266.17
2019-05-01T03:38:22.191Z,100268.44
2019-05-01T03:40:53.263Z,100276.27
2019-05-01T03:43:24.205Z,100266.30
2019-05-01T03:45:56.014Z,100268.74
2019-05-01T03:48:27.055Z,100268.83
2019-05-01T03:50:58.116Z,100275.72
2019-05-01T03:53:29.892Z,100275.72
2019-05-01T03:56:01.781Z,100279.21
2019-05-01T03:58:33.327Z,100285.13
2019-05-01T04:01:14.927Z,100286.36
2019-05-01T04:03:53.566Z,100283.78
2019-05-01T04:06:24.529Z,100276.59
2019-05-01T04:08:56.118Z,100283.45
2019-05-01T04:11:26.832Z,100276.89
2019-05-01T04:13:58.515Z,100266.41
2019-05-01T04:16:29.488Z,100261.36
2019-05-01T04:19:00.442Z,100253.87
2019-05-01T04:21:32.901Z,100246.12
2019-05-01T04:24:04.505Z,100241.20
2019-05-01T04:26:35.272Z,100243.44
2019-05-01T04:29:16.754Z,100251.86
2019-05-01T04:32:04.407Z,100250.33
2019-05-01T04:34:46.386Z,100254.93
2019-05-01T04:37:18.776Z,100250.92
2019-05-01T04:39:49.938Z,100251.98
2019-05-01T04:42:20.776Z,100252.80
2019-05-01T04:44:51.856Z,100248.14
2019-05-01T04:47:23.235Z,100237.63
2019-05-01T04:49:54.489Z,100254.17
2019-05-01T04:52:25.608Z,100249.42
2019-05-01T04:54:56.611Z,100251.72
2019-05-01T04:57:27.652Z,100240.39
2019-05-01T04:59:59.651Z,100234.91
2019-05-01T05:02:32.639Z,100225.13
2019-05-01T05:05:03.816Z,100223.78
2019-05-01T05:07:34.662Z,100236.82
2019-05-01T05:10:06.640Z,100232.77
2019-05-01T05:12:39.261Z,100223.45
2019-05-01T05:15:26.979Z,100228.84
2019-05-01T05:17:58.140Z,100228.97
2019-05-01T05:20:29.288Z,100224.35
2019-05-01T05:23:00.809Z,100211.88
2019-05-01T05:25:31.837Z,100203.67
2019-05-01T05:28:02.800Z,100199.49
2019-05-01T05:30:36.399Z,100200.66
2019-05-01T05:33:18.041Z,100199.67
2019-05-01T05:35:43.751Z,100198.83
2019-05-01T05:38:21.459Z,100196.11
2019-05-01T05:40:52.965Z,100196.34
2019-05-01T05:43:24.989Z,100195.90
2019-05-01T05:45:56.380Z,100194.73
2019-05-01T05:48:27.735Z,100201.61
2019-05-01T05:51:10.875Z,100191.66
2019-05-01T05:53:50.837Z,100193.51
2019-05-01T05:56:25.986Z,100185.23
2019-05-01T05:59:00.205Z,100188.58
2019-05-01T06:01:52.654Z,100187.61
2019-05-01T06:04:30.565Z,100184.72
2019-05-01T06:07:05.801Z,100181.59
2019-05-01T06:09:44.506Z,100179.33
2019-05-01T06:12:22.161Z,100184.08
2019-05-01T06:14:56.272Z,100182.34
2019-05-01T06:17:35.016Z,100180.95
2019-05-01T06:20:12.914Z,100168.63
2019-05-01T06:23:04.945Z,100176.23
2019-05-01T06:25:40.139Z,100182.45
2019-05-01T06:28:11.787Z,100175.06
2019-05-01T06:30:47.049Z,100174.95
2019-05-01T06:33:15.542Z,100169.25
2019-05-01T06:35:46.384Z,100171.08
2019-05-01T06:38:18.717Z,100172.36
2019-05-01T06:40:52.944Z,100183.20
2019-05-01T06:43:30.411Z,100192.52
2019-05-01T06:46:09.457Z,100197.80
2019-05-01T06:48:53.506Z,100203.80
2019-05-01T06:51:35.711Z,100198.53
2019-05-01T06:54:16.422Z,100212.16
2019-05-01T06:56:49.913Z,100213.65
2019-05-01T06:59:26.137Z,100212.50
2019-05-01T07:02:02.375Z,100202.17
2019-05-01T07:04:44.860Z,100218.91
2019-05-01T07:07:25.246Z,100211.62
2019-05-01T07:09:53.335Z,100215.16
2019-05-01T07:12:31.870Z,100204.60
2019-05-01T07:15:10.061Z,100211.88
2019-05-01T07:17:53.539Z,100207.92
2019-05-01T07:20:38.477Z,100206.00
2019-05-01T07:23:19.198Z,100211.59
2019-05-01T07:25:55.591Z,100217.19
2019-05-01T07:28:33.583Z,100208.84
2019-05-01T07:31:04.991Z,100213.99
2019-05-01T07:33:34.967Z,100202.98
2019-05-01T07:36:15.012Z,100202.02
2019-05-01T07:38:40.541Z,100202.42
2019-05-01T07:41:12.464Z,100206.05
2019-05-01T07:43:45.254Z,100189.56
2019-05-01T07:46:30.313Z,100195.05
2019-05-01T07:49:02.176Z,100194.25
2019-05-01T07:51:33.139Z,100184.96
2019-05-01T07:54:08.521Z,100173.31
2019-05-01T07:56:37.588Z,100173.02
2019-05-01T07:59:08.575Z,100170.38
2019-05-01T08:01:42.711Z,100171.23
2019-05-01T08:04:19.752Z,100152.80
2019-05-01T08:06:47.512Z,100144.97
2019-05-01T08:09:20.062Z,100137.84
2019-05-01T08:11:58.028Z,100119.55
2019-05-01T08:14:31.621Z,100122.15
2019-05-01T08:17:02.684Z,100111.41
2019-05-01T08:19:39.505Z,100118.97
2019-05-01T08:22:09.035Z,100122.42
2019-05-01T08:24:40.056Z,100124.05
2019-05-01T08:27:15.666Z,100130.16
2019-05-01T08:29:53.232Z,100122.83
2019-05-01T08:32:40.907Z,100133.30
2019-05-01T08:35:12.815Z,100144.57
2019-05-01T08:37:43.792Z,100144.81
2019-05-01T08:40:15.880Z,100139.29
2019-05-01T08:42:47.449Z,100150.79
2019-05-01T08:45:23.112Z,100149.56
2019-05-01T08:48:10.638Z,100137.96
2019-05-01T08:50:41.638Z,100141.20
2019-05-01T08:53:12.762Z,100128.30
2019-05-01T08:55:45.005Z,100135.80
2019-05-01T08:58:16.004Z,100131.25
2019-05-01T09:00:47.166Z,100138.20
2019-05-01T09:03:18.870Z,100133.66
2019-05-01T09:05:52.138Z,100132.05
2019-05-01T09:08:22.701Z,100132.05
2019-05-01T09:10:54.819Z,100123.98
2019-05-01T09:13:29.425Z,100121.31
2019-05-01T09:16:00.689Z,100121.11
2019-05-01T09:18:31.735Z,100116.28
2019-05-01T09:21:02.711Z,100108.88
2019-05-01T09:23:34.635Z,100104.57
2019-05-01T09:26:22.730Z,100101.80
2019-05-01T09:28:55.222Z,100091.00
2019-05-01T09:31:33.994Z,100087.39
2019-05-01T09:34:03.361Z,100083.93
2019-05-01T09:36:34.216Z,100085.36
2019-05-01T09:39:07.340Z,100082.58
2019-05-01T09:41:38.871Z,100081.55
2019-05-01T09:44:12.010Z,100075.84
2019-05-01T09:46:42.651Z,100072.13
2019-05-01T09:49:17.767Z,100065.96
2019-05-01T09:52:05.350Z,100063.81
2019-05-01T09:54:46.701Z,100065.59
2019-05-01T09:57:30.160Z,100061.81
2019-05-01T10:00:07.575Z,100062.62
2019-05-01T10:58:29.994Z,100004.52
2019-05-01T11:01:02.575Z,100000.01
2019-05-01T11:03:33.426Z,100004.86
2019-05-01T11:06:04.409Z,100007.10
2019-05-01T11:08:35.668Z,100004.80
2019-05-01T11:11:06.728Z,100008.96
2019-05-01T11:13:37.792Z,99998.17
2019-05-01T11:16:08.857Z,99999.73
2019-05-01T11:18:40.047Z,99992.39
2019-05-01T11:21:10.875Z,99995.20
2019-05-01T11:23:41.729Z,99986.43
2019-05-01T11:26:12.886Z,99979.59
2019-05-01T11:28:44.049Z,99977.97
2019-05-01T11:31:16.645Z,99973.23
2019-05-01T11:33:58.226Z,99975.33
2019-05-01T11:36:48.731Z,99963.09
2019-05-01T11:39:24.096Z,99967.31
2019-05-01T11:42:15.918Z,99961.27
2019-05-01T11:44:47.085Z,99964.09
2019-05-01T11:47:17.931Z,99968.80
2019-05-01T11:49:50.360Z,99964.48
2019-05-01T11:52:25.646Z,99950.66
2019-05-01T11:54:59.915Z,99945.20
2019-05-01T11:57:33.067Z,99949.72
2019-05-01T12:00:16.163Z,99948.91
2019-05-01T12:03:00.587Z,99949.98
2019-05-01T12:05:39.860Z,99943.89
2019-05-01T12:08:18.575Z,99938.13
2019-05-01T12:10:59.180Z,99938.20
2019-05-01T12:13:43.298Z,99933.02
2019-05-01T12:16:06.796Z,99927.32
2019-05-01T12:18:38.059Z,99920.48
2019-05-01T12:21:08.713Z,99920.09
2019-05-01T12:23:39.663Z,99917.72
2019-05-01T12:26:10.832Z,99913.11
2019-05-01T12:28:41.688Z,99905.55
2019-05-01T12:31:12.731Z,99902.55
2019-05-01T12:33:43.606Z,99890.28
2019-05-01T12:36:14.665Z,99889.77
2019-05-01T12:38:45.418Z,99888.14
2019-05-01T12:41:27.117Z,99884.11
2019-05-01T12:43:58.058Z,99876.95
2019-05-01T12:46:36.296Z,99871.92
2019-05-01T12:49:08.479Z,99873.25
2019-05-01T12:51:40.461Z,99867.77
2019-05-01T12:54:18.782Z,99865.61
2019-05-01T12:56:59.356Z,99868.01
2019-05-01T12:59:30.518Z,99858.18
2019-05-01T13:02:01.376Z,99848.39
2019-05-01T13:04:32.520Z,99849.73
2019-05-01T13:07:03.701Z,99848.02
2019-05-01T13:09:34.851Z,99841.69
2019-05-01T13:12:06.845Z,99842.41
2019-05-01T13:14:37.581Z,99838.46
2019-05-01T13:17:08.460Z,99833.52
2019-05-01T13:19:39.313Z,99827.13
2019-05-01T13:22:10.270Z,99831.73
2019-05-01T13:24:50.227Z,99819.32
2019-05-01T13:27:31.616Z,99819.41
2019-05-01T13:30:09.921Z,99806.38
2019-05-01T13:32:42.315Z,99808.26
2019-05-01T13:35:13.596Z,99807.04
2019-05-01T13:37:44.657Z,99810.58
2019-05-01T13:40:17.135Z,99800.33
2019-05-01T13:42:47.901Z,99790.76
2019-05-01T13:45:18.962Z,99782.22
2019-05-01T13:47:49.822Z,99785.33
2019-05-01T13:50:21.086Z,99782.90
2019-05-01T13:52:52.042Z,99778.61
2019-05-01T13:55:23.206Z,99793.47
2019-05-01T13:57:54.350Z,99776.99
2019-05-01T14:00:26.774Z,99783.21
2019-05-01T14:02:57.413Z,99775.16
2019-05-01T14:05:28.559Z,99773.63
2019-05-01T14:07:59.327Z,99768.64
2019-05-01T14:10:30.268Z,99778.19
2019-05-01T14:13:01.330Z,99772.58
2019-05-01T14:15:32.184Z,99773.54
2019-05-01T14:18:03.369Z,99774.86
2019-05-01T14:20:52.513Z,99768.70
2019-05-01T14:23:27.764Z,99768.58
2019-05-01T14:26:06.294Z,99763.66
2019-05-01T14:28:38.659Z,99754.98
2019-05-01T14:31:09.357Z,99761.30
2019-05-01T14:33:40.192Z,99762.45
2019-05-01T14:36:11.168Z,99754.17
2019-05-01T14:38:42.022Z,99758.06
2019-05-01T14:41:12.865Z,99755.17
2019-05-01T14:43:43.819Z,99759.13
2019-05-01T14:46:14.797Z,99754.03
2019-05-01T14:48:45.548Z,99755.30
2019-05-01T14:51:16.506Z,99752.20
2019-05-01T14:53:47.363Z,99749.36
2019-05-01T14:56:18.217Z,99750.97
2019-05-01T14:58:49.176Z,99746.94
2019-05-01T15:01:20.139Z,99743.89
2019-05-01T15:03:50.975Z,99747.63
2019-05-01T15:06:22.159Z,99743.44
2019-05-01T15:08:53.198Z,99733.80
2019-05-01T15:11:24.054Z,99731.22
2019-05-01T15:14:12.909Z,99729.77
2019-05-01T15:16:45.300Z,99724.91
2019-05-01T15:19:17.767Z,99724.09
2019-05-01T15:21:48.563Z,99717.89
2019-05-01T15:24:19.521Z,99721.03
2019-05-01T15:26:50.386Z,99712.14
2019-05-01T15:29:21.338Z,99712.09
2019-05-01T15:31:58.535Z,99704.45
2019-05-01T15:34:29.681Z,99711.16
2019-05-01T15:37:00.451Z,99702.19
2019-05-01T15:39:33.235Z,99701.43
2019-05-01T15:42:24.151Z,99705.78
2019-05-01T15:44:55.011Z,99699.33
2019-05-01T15:47:25.949Z,99697.37
2019-05-01T15:49:56.713Z,99696.11
2019-05-01T15:52:27.766Z,99706.32
2019-05-01T15:54:58.967Z,99700.14
2019-05-01T15:57:29.800Z,99703.44
2019-05-01T16:00:00.657Z,99697.55
2019-05-01T16:02:31.615Z,99699.13
2019-05-01T16:05:02.471Z,99701.20
2019-05-01T16:07:33.326Z,99689.27
2019-05-01T16:10:08.768Z,99693.87
2019-05-01T16:12:43.921Z,99697.37
2019-05-01T16:15:25.428Z,99691.05
2019-05-01T16:17:56.288Z,99690.97
2019-05-01T16:20:27.244Z,99690.53
2019-05-01T16:22:57.979Z,99684.56
2019-05-01T16:25:28.958Z,99678.94
2019-05-01T16:27:59.927Z,99676.27
2019-05-01T16:30:30.796Z,99685.31
2019-05-01T16:33:05.320Z,99679.09
2019-05-01T16:35:36.252Z,99674.05
2019-05-01T16:38:08.656Z,99678.41
2019-05-01T16:40:41.252Z,99679.32
2019-05-01T16:43:12.722Z,99681.73
2019-05-01T16:45:43.885Z,99673.96
2019-05-01T16:48:15.456Z,99685.11
2019-05-01T16:50:46.415Z,99682.05
2019-05-01T16:53:17.152Z,99684.03
2019-05-01T16:55:48.109Z,99682.13
2019-05-01T16:58:19.397Z,99687.92
2019-05-01T17:01:02.930Z,99696.27
2019-05-01T17:03:44.509Z,99694.19
2019-05-01T17:06:17.030Z,99694.59
2019-05-01T17:08:52.569Z,99697.61
2019-05-01T17:11:28.736Z,99699.81
2019-05-01T17:14:00.312Z,99708.20
2019-05-01T17:16:31.286Z,99708.28
2019-05-01T17:19:02.346Z,99718.52
2019-05-01T17:21:33.200Z,99715.20
2019-05-01T17:24:04.141Z,99718.22
2019-05-01T17:26:35.015Z,99728.03
2019-05-01T17:29:05.771Z,99726.39
2019-05-01T17:31:36.606Z,99725.53
2019-05-01T17:34:09.706Z,99727.99
2019-05-01T17:36:39.976Z,99733.13
2019-05-01T17:39:12.162Z,99735.23
2019-05-01T17:41:42.929Z,99740.59
2019-05-01T17:44:13.975Z,99738.54
2019-05-01T17:46:53.389Z,99743.91
2019-05-01T17:49:33.204Z,99742.86
2019-05-01T17:52:06.181Z,99740.70
2019-05-01T17:54:37.242Z,99737.98
2019-05-01T17:57:08.201Z,99736.02
2019-05-01T17:59:39.059Z,99735.53
2019-05-01T18:02:24.845Z,99739.48
2019-05-01T18:04:57.232Z,99740.17
2019-05-01T18:07:33.143Z,99750.06
2019-05-01T18:10:01.914Z,99746.73
2019-05-01T18:12:32.666Z,99741.05
2019-05-01T18:15:04.119Z,99748.42
2019-05-01T18:17:34.564Z,99747.63
2019-05-01T18:20:07.284Z,99745.84
2019-05-01T18:22:39.671Z,99747.18
2019-05-01T18:25:33.184Z,99747.19
2019-05-01T18:28:06.138Z,99744.89
2019-05-01T18:30:38.507Z,99750.48
2019-05-01T18:33:09.482Z,99750.77
2019-05-01T18:35:40.011Z,99750.77
2019-05-01T18:38:21.407Z,99752.62
2019-05-01T18:40:59.846Z,99751.22
2019-05-01T18:43:32.154Z,99752.45
2019-05-01T18:46:03.706Z,99746.66
2019-05-01T18:48:34.561Z,99743.50
2019-05-01T18:51:06.222Z,99748.34
2019-05-01T18:53:36.972Z,99748.61
2019-05-01T18:56:07.954Z,99748.02
2019-05-01T18:58:38.809Z,99744.56
2019-05-01T19:01:10.819Z,99746.80
2019-05-01T19:03:42.300Z,99745.59
2019-05-01T19:06:13.420Z,99745.12
2019-05-01T19:08:44.154Z,99741.58
2019-05-01T19:11:15.717Z,99744.63
2019-05-01T19:13:46.307Z,99748.27
2019-05-01T19:16:17.151Z,99749.27
2019-05-01T19:18:47.906Z,99750.83
2019-05-01T19:21:20.563Z,99752.95
2019-05-01T19:23:52.820Z,99748.66
2019-05-01T19:26:23.932Z,99751.34
2019-05-01T19:28:54.815Z,99748.66
2019-05-01T19:31:25.866Z,99744.71
2019-05-01T19:33:56.441Z,99739.88
2019-05-01T19:36:27.051Z,99738.58
2019-05-01T19:38:58.043Z,99738.88
2019-05-01T19:41:30.965Z,99743.62
2019-05-01T19:44:01.476Z,99737.29
2019-05-01T19:46:32.333Z,99738.95
2019-05-01T19:49:03.419Z,99740.52
2019-05-01T19:51:35.079Z,99743.62
2019-05-01T19:54:06.045Z,99743.72
2019-05-01T19:56:36.990Z,99743.62
2019-05-01T19:59:07.925Z,99742.66
2019-05-01T20:01:44.633Z,99742.73
2019-05-01T20:04:13.218Z,99744.78
2019-05-01T20:06:43.713Z,99736.88
2019-05-01T20:09:14.726Z,99739.36
2019-05-01T20:11:45.396Z,99728.95
2019-05-01T20:14:17.358Z,99730.72
2019-05-01T20:16:50.989Z,99731.16
2019-05-01T20:19:21.627Z,99724.45
2019-05-01T20:21:54.144Z,99724.01
2019-05-01T20:24:24.872Z,99717.38
2019-05-01T20:26:57.586Z,99718.56
2019-05-01T20:29:31.514Z,99721.94
2019-05-01T20:32:03.289Z,99723.77
2019-05-01T20:34:34.059Z,99722.91
2019-05-01T20:37:04.780Z,99715.30
2019-05-01T20:39:35.962Z,99719.75
2019-05-01T20:42:07.112Z,99711.58
2019-05-01T20:44:37.771Z,99709.77
2019-05-01T20:47:08.507Z,99706.98
2019-05-01T20:49:41.323Z,99700.83
2019-05-01T20:52:12.487Z,99695.89
2019-05-01T20:54:43.230Z,99690.72
2019-05-01T20:57:20.759Z,99688.03
2019-05-01T20:59:48.344Z,99685.89
2019-05-01T21:02:19.169Z,99677.59
2019-05-01T21:04:52.082Z,99685.20
2019-05-01T21:07:29.985Z,99681.13
2019-05-01T21:10:02.281Z,99681.47
2019-05-01T21:12:33.329Z,99678.39
2019-05-01T21:15:07.628Z,99671.02
2019-05-01T21:17:44.267Z,99666.05
2019-05-01T21:20:13.522Z,99658.38
2019-05-01T21:22:44.037Z,99664.81
2019-05-01T21:25:14.787Z,99663.53
2019-05-01T21:27:45.541Z,99661.66
2019-05-01T21:30:16.381Z,99668.53
2019-05-01T21:32:47.269Z,99660.74
2019-05-01T21:35:18.008Z,99666.21
2019-05-01T21:37:48.968Z,99662.78
2019-05-01T21:40:19.398Z,99663.27
2019-05-01T21:42:54.327Z,99655.48
2019-05-01T21:45:23.579Z,99661.86
2019-05-01T21:47:55.663Z,99657.11
2019-05-01T21:50:27.850Z,99655.22
2019-05-01T21:53:03.316Z,99648.69
2019-05-01T21:55:32.122Z,99648.34
2019-05-01T21:58:05.031Z,99646.20
2019-05-01T22:00:39.644Z,99641.00
2019-05-01T22:03:10.806Z,99639.01
2019-05-01T22:05:41.882Z,99634.13
2019-05-01T22:08:12.737Z,99640.23
2019-05-01T22:10:51.766Z,99634.08
2019-05-01T22:13:20.351Z,99624.73
2019-05-01T22:15:53.368Z,99634.56
2019-05-01T22:18:31.710Z,99626.84
2019-05-01T22:21:03.983Z,99626.13
2019-05-01T22:23:52.444Z,99623.62
2019-05-01T22:26:23.483Z,99627.09
2019-05-01T22:28:56.121Z,99615.90
2019-05-01T22:31:44.839Z,99617.90
2019-05-01T22:34:32.160Z,99615.73
2019-05-01T22:37:03.016Z,99609.38
2019-05-01T22:39:34.792Z,99615.66
2019-05-01T22:42:05.343Z,99615.26
2019-05-01T22:44:35.106Z,99608.05
2019-05-01T22:47:10.164Z,99598.98
2019-05-01T22:49:38.836Z,99595.02
2019-05-01T22:52:09.599Z,99591.73
2019-05-01T22:54:40.338Z,99592.38
2019-05-01T22:57:11.193Z,99588.10
2019-05-01T22:59:41.949Z,99587.83
2019-05-01T23:02:28.480Z,99592.45
2019-05-01T23:04:58.590Z,99583.61
2019-05-01T23:07:29.468Z,99592.25
2019-05-01T23:10:03.199Z,99587.82
2019-05-01T23:12:32.711Z,99590.70
2019-05-01T23:15:06.123Z,99591.45
2019-05-01T23:17:41.683Z,99592.53
2019-05-01T23:20:12.643Z,99594.91
2019-05-01T23:22:43.378Z,99584.64
2019-05-01T23:25:14.971Z,99582.55
2019-05-01T23:27:45.831Z,99584.59
2019-05-01T23:30:19.137Z,99583.60
2019-05-01T23:32:49.992Z,99580.17
2019-05-01T23:35:20.727Z,99580.47
2019-05-01T23:37:51.501Z,99578.22
2019-05-01T23:40:22.361Z,99578.41
2019-05-01T23:42:53.955Z,99582.79
2019-05-01T23:45:24.580Z,99576.19
2019-05-01T23:47:55.434Z,99569.69
2019-05-01T23:50:26.187Z,99576.64
2019-05-01T23:52:56.923Z,99565.13
2019-05-01T23:55:27.797Z,99563.30
2019-05-01T23:57:58.656Z,99568.25
